Terminal Aerodrome Forecast
Issued by NWS

Home | Current Version | Previous Version | Text Only | Print | Product List | Glossary On
Versions: 1 2 3 4 5 6 7 8 9 10 11 12 13
000
FTUS42 TJSJ 291139
TAFNCM
TAF
TNCM 291139Z 2912/3012 11008KT P6SM VCSH SCT018 BKN040
     FM291400 13012KT P6SM VCTS SCT018CB BKN035 BKN100
     FM292200 12009KT P6SM VCTS BKN020CB BKN030 OVC100=

USA.gov is the U.S. government's official web portal to all federal, state and local government web resources and services.